KAC614 OBBI-OKKK
Flight info
| Callsign | KAC614 |
|---|---|
| Flight time | 0h 50m |
| Altitude | 26000 |
| Route | BHR A453 DEBTI |
| Aircraft | A21N/M-SDE2E3FGHIRWXY/LB1 |
Departure
| Time | 2026-04-28 13:12 |
|---|---|
| Airport | Bahrain International Airport (OBBI) |
Arrival
| Time | 2026-04-28 14:02 |
|---|---|
| Airport | Kuwait International Airport (OKKK) |
| Time | Latitude | Longitude | Altitude | Speed | Heading |
|---|---|---|---|---|---|
| 2026-04-28 12:33 | 26.26971 | 50.62786 | 20 ft | 0 kts | 214° |
| 2026-04-28 12:53 | 26.26978 | 50.62792 | 41 ft | 2 kts | 214° |
| 2026-04-28 12:53 | 26.26989 | 50.62800 | 45 ft | 2 kts | 214° |
| 2026-04-28 12:53 | 26.26990 | 50.62801 | 45 ft | 0 kts | 214° |
| 2026-04-28 12:53 | 26.26989 | 50.62801 | 45 ft | 0 kts | 214° |
| 2026-04-28 12:54 | 26.26990 | 50.62801 | 45 ft | 2 kts | 215° |
| 2026-04-28 12:54 | 26.27006 | 50.62815 | 15 ft | 6 kts | 217° |
| 2026-04-28 12:54 | 26.27029 | 50.62831 | 22 ft | 3 kts | 205° |
| 2026-04-28 12:54 | 26.27050 | 50.62837 | 21 ft | 3 kts | 173° |
| 2026-04-28 12:55 | 26.27070 | 50.62827 | 21 ft | 3 kts | 128° |
| 2026-04-28 12:55 | 26.27077 | 50.62815 | 20 ft | 0 kts | 123° |
| 2026-04-28 13:00 | 26.27075 | 50.62818 | 18 ft | 2 kts | 123° |
| 2026-04-28 13:00 | 26.27067 | 50.62861 | 18 ft | 8 kts | 89° |
| 2026-04-28 13:01 | 26.27101 | 50.62899 | 18 ft | 7 kts | 33° |
| 2026-04-28 13:01 | 26.27113 | 50.62930 | 19 ft | 6 kts | 91° |
| 2026-04-28 13:01 | 26.27089 | 50.62999 | 18 ft | 13 kts | 125° |
| 2026-04-28 13:01 | 26.27038 | 50.63088 | 17 ft | 14 kts | 121° |
| 2026-04-28 13:02 | 26.27031 | 50.63102 | 18 ft | 1 kts | 121° |
| 2026-04-28 13:02 | 26.27025 | 50.63112 | 17 ft | 2 kts | 121° |
| 2026-04-28 13:02 | 26.27013 | 50.63133 | 16 ft | 4 kts | 122° |
| 2026-04-28 13:02 | 26.26983 | 50.63188 | 15 ft | 13 kts | 123° |
| 2026-04-28 13:03 | 26.26921 | 50.63295 | 16 ft | 20 kts | 122° |
| 2026-04-28 13:03 | 26.26836 | 50.63443 | 15 ft | 26 kts | 123° |
| 2026-04-28 13:03 | 26.26735 | 50.63608 | 18 ft | 25 kts | 122° |
| 2026-04-28 13:03 | 26.26647 | 50.63767 | 18 ft | 24 kts | 121° |
| 2026-04-28 13:04 | 26.26560 | 50.63920 | 18 ft | 23 kts | 122° |
| 2026-04-28 13:04 | 26.26477 | 50.64069 | 16 ft | 23 kts | 121° |
| 2026-04-28 13:04 | 26.26392 | 50.64215 | 16 ft | 22 kts | 123° |
| 2026-04-28 13:04 | 26.26308 | 50.64357 | 15 ft | 22 kts | 123° |
| 2026-04-28 13:05 | 26.26221 | 50.64505 | 15 ft | 24 kts | 123° |
| 2026-04-28 13:05 | 26.26130 | 50.64665 | 15 ft | 24 kts | 122° |
| 2026-04-28 13:05 | 26.26052 | 50.64800 | 17 ft | 14 kts | 122° |
| 2026-04-28 13:05 | 26.26025 | 50.64848 | 17 ft | 3 kts | 121° |
| 2026-04-28 13:06 | 26.26013 | 50.64889 | 17 ft | 8 kts | 90° |
| 2026-04-28 13:06 | 26.26027 | 50.64932 | 18 ft | 0 kts | 57° |
| 2026-04-28 13:09 | 26.26031 | 50.64939 | 18 ft | 4 kts | 56° |
| 2026-04-28 13:10 | 26.26064 | 50.64973 | 18 ft | 9 kts | 34° |
| 2026-04-28 13:10 | 26.26128 | 50.65003 | 21 ft | 9 kts | 346° |
| 2026-04-28 13:10 | 26.26161 | 50.64968 | 19 ft | 0 kts | 301° |
| 2026-04-28 13:10 | 26.26163 | 50.64963 | 19 ft | 1 kts | 301° |
| 2026-04-28 13:11 | 26.26221 | 50.64855 | 17 ft | 43 kts | 301° |
| 2026-04-28 13:11 | 26.26488 | 50.64399 | 16 ft | 97 kts | 303° |
| 2026-04-28 13:11 | 26.26957 | 50.63587 | 16 ft | 153 kts | 303° |
| 2026-04-28 13:11 | 26.27593 | 50.62445 | 112 ft | 184 kts | 302° |
| 2026-04-28 13:12 | 26.28280 | 50.61276 | 521 ft | 180 kts | 314° |
| 2026-04-28 13:12 | 26.29286 | 50.60534 | 1114 ft | 169 kts | 340° |
| 2026-04-28 13:12 | 26.30405 | 50.60143 | 1600 ft | 173 kts | 346° |
| 2026-04-28 13:12 | 26.31633 | 50.59805 | 1844 ft | 192 kts | 345° |
| 2026-04-28 13:13 | 26.33036 | 50.59481 | 1977 ft | 217 kts | 344° |
| 2026-04-28 13:13 | 26.34557 | 50.59065 | 2258 ft | 230 kts | 343° |
| 2026-04-28 13:13 | 26.36123 | 50.58619 | 2750 ft | 234 kts | 342° |
| 2026-04-28 13:13 | 26.37717 | 50.58156 | 3191 ft | 242 kts | 342° |
| 2026-04-28 13:14 | 26.39412 | 50.57653 | 3452 ft | 259 kts | 342° |
| 2026-04-28 13:14 | 26.41160 | 50.57134 | 3914 ft | 269 kts | 342° |
| 2026-04-28 13:14 | 26.43025 | 50.56579 | 4398 ft | 283 kts | 341° |
| 2026-04-28 13:14 | 26.44942 | 50.56011 | 5087 ft | 287 kts | 341° |
| 2026-04-28 13:15 | 26.46878 | 50.55442 | 5815 ft | 289 kts | 341° |
| 2026-04-28 13:15 | 26.48833 | 50.54867 | 6505 ft | 292 kts | 341° |
| 2026-04-28 13:15 | 26.50807 | 50.54286 | 7170 ft | 294 kts | 341° |
| 2026-04-28 13:15 | 26.52794 | 50.53700 | 7863 ft | 297 kts | 340° |
| 2026-04-28 13:16 | 26.54785 | 50.53116 | 8675 ft | 293 kts | 340° |
| 2026-04-28 13:16 | 26.56756 | 50.52537 | 9503 ft | 292 kts | 339° |
| 2026-04-28 13:16 | 26.58727 | 50.51954 | 10186 ft | 295 kts | 340° |
| 2026-04-28 13:16 | 26.60721 | 50.51361 | 10854 ft | 298 kts | 340° |
| 2026-04-28 13:17 | 26.62734 | 50.50762 | 11576 ft | 300 kts | 340° |
| 2026-04-28 13:17 | 26.64762 | 50.50160 | 12345 ft | 302 kts | 340° |
| 2026-04-28 13:17 | 26.66804 | 50.49554 | 13118 ft | 305 kts | 340° |
| 2026-04-28 13:17 | 26.68847 | 50.48901 | 13821 ft | 305 kts | 333° |
| 2026-04-28 13:18 | 26.70708 | 50.47798 | 14352 ft | 306 kts | 321° |
| 2026-04-28 13:18 | 26.72460 | 50.46336 | 14632 ft | 320 kts | 316° |
| 2026-04-28 13:18 | 26.74169 | 50.44662 | 14922 ft | 334 kts | 313° |
| 2026-04-28 13:18 | 26.75862 | 50.42863 | 15259 ft | 345 kts | 311° |
| 2026-04-28 13:19 | 26.77591 | 50.40974 | 15819 ft | 348 kts | 311° |
| 2026-04-28 13:19 | 26.79329 | 50.39075 | 16491 ft | 349 kts | 311° |
| 2026-04-28 13:19 | 26.81076 | 50.37180 | 17140 ft | 350 kts | 311° |
| 2026-04-28 13:19 | 26.82839 | 50.35284 | 17772 ft | 352 kts | 311° |
| 2026-04-28 13:20 | 26.84616 | 50.33387 | 18346 ft | 354 kts | 311° |
| 2026-04-28 13:20 | 26.86415 | 50.31473 | 18801 ft | 359 kts | 311° |
| 2026-04-28 13:20 | 26.88235 | 50.29539 | 19215 ft | 363 kts | 310° |
| 2026-04-28 13:20 | 26.90083 | 50.27579 | 19637 ft | 367 kts | 310° |
| 2026-04-28 13:21 | 26.91945 | 50.25603 | 20065 ft | 372 kts | 310° |
| 2026-04-28 13:21 | 26.93839 | 50.23592 | 20466 ft | 376 kts | 310° |
| 2026-04-28 13:21 | 26.95723 | 50.21592 | 20914 ft | 379 kts | 310° |
| 2026-04-28 13:21 | 26.97646 | 50.19549 | 21352 ft | 382 kts | 309° |
| 2026-04-28 13:22 | 26.99583 | 50.17490 | 21760 ft | 386 kts | 309° |
| 2026-04-28 13:22 | 27.01540 | 50.15408 | 22164 ft | 389 kts | 309° |
| 2026-04-28 13:22 | 27.03512 | 50.13306 | 22570 ft | 392 kts | 308° |
| 2026-04-28 13:22 | 27.05371 | 50.11076 | 22977 ft | 392 kts | 305° |
| 2026-04-28 13:23 | 27.07188 | 50.08791 | 23376 ft | 394 kts | 304° |
| 2026-04-28 13:23 | 27.08992 | 50.06457 | 23621 ft | 399 kts | 303° |
| 2026-04-28 13:23 | 27.10807 | 50.04072 | 23935 ft | 401 kts | 303° |
| 2026-04-28 13:23 | 27.12617 | 50.01684 | 24301 ft | 402 kts | 303° |
| 2026-04-28 13:24 | 27.13815 | 50.00100 | 24542 ft | 402 kts | 303° |
| 2026-04-28 13:24 | 27.15629 | 49.97704 | 24884 ft | 404 kts | 303° |
| 2026-04-28 13:24 | 27.17454 | 49.95292 | 25163 ft | 406 kts | 303° |
| 2026-04-28 13:24 | 27.19286 | 49.92873 | 25454 ft | 408 kts | 303° |
| 2026-04-28 13:25 | 27.21129 | 49.90441 | 25712 ft | 410 kts | 303° |
| 2026-04-28 13:25 | 27.22978 | 49.88005 | 25768 ft | 409 kts | 303° |
| 2026-04-28 13:25 | 27.24828 | 49.85566 | 25771 ft | 410 kts | 303° |
| 2026-04-28 13:25 | 27.26677 | 49.83128 | 25771 ft | 410 kts | 303° |
| 2026-04-28 13:26 | 27.28528 | 49.80686 | 25773 ft | 410 kts | 303° |
| 2026-04-28 13:26 | 27.30379 | 49.78242 | 25769 ft | 410 kts | 303° |
| 2026-04-28 13:26 | 27.32227 | 49.75799 | 25768 ft | 410 kts | 303° |
| 2026-04-28 13:26 | 27.34073 | 49.73357 | 25774 ft | 410 kts | 303° |
| 2026-04-28 13:27 | 27.35919 | 49.70914 | 25771 ft | 409 kts | 303° |
| 2026-04-28 13:27 | 27.37737 | 49.68506 | 25760 ft | 409 kts | 303° |
| 2026-04-28 13:27 | 27.39584 | 49.66060 | 25760 ft | 409 kts | 303° |
| 2026-04-28 13:27 | 27.41429 | 49.63612 | 25769 ft | 410 kts | 303° |
| 2026-04-28 13:28 | 27.43273 | 49.61166 | 25759 ft | 410 kts | 303° |
| 2026-04-28 13:28 | 27.45121 | 49.58712 | 25757 ft | 410 kts | 303° |
| 2026-04-28 13:28 | 27.46974 | 49.56268 | 25759 ft | 412 kts | 305° |
| 2026-04-28 13:28 | 27.49056 | 49.54013 | 25762 ft | 418 kts | 311° |
| 2026-04-28 13:29 | 27.51266 | 49.51880 | 25755 ft | 420 kts | 312° |
| 2026-04-28 13:29 | 27.53527 | 49.49797 | 25755 ft | 420 kts | 313° |
| 2026-04-28 13:29 | 27.55825 | 49.47735 | 25754 ft | 421 kts | 314° |
| 2026-04-28 13:29 | 27.58125 | 49.45692 | 25758 ft | 421 kts | 314° |
| 2026-04-28 13:30 | 27.60430 | 49.43648 | 25751 ft | 422 kts | 314° |
| 2026-04-28 13:30 | 27.62736 | 49.41598 | 25751 ft | 422 kts | 314° |
| 2026-04-28 13:30 | 27.65008 | 49.39571 | 25752 ft | 422 kts | 314° |
| 2026-04-28 13:30 | 27.67305 | 49.37515 | 25757 ft | 422 kts | 314° |
| 2026-04-28 13:31 | 27.71902 | 49.33387 | 25750 ft | 422 kts | 313° |
| 2026-04-28 13:31 | 27.74194 | 49.31325 | 25771 ft | 422 kts | 313° |
| 2026-04-28 13:31 | 27.76487 | 49.29260 | 25753 ft | 421 kts | 313° |
| 2026-04-28 13:32 | 27.78778 | 49.27196 | 25751 ft | 421 kts | 313° |
| 2026-04-28 13:32 | 27.81071 | 49.25129 | 25746 ft | 421 kts | 313° |
| 2026-04-28 13:32 | 27.83364 | 49.23062 | 25747 ft | 421 kts | 313° |
| 2026-04-28 13:32 | 27.85654 | 49.20997 | 25746 ft | 421 kts | 314° |
| 2026-04-28 13:33 | 27.88079 | 49.19076 | 25752 ft | 427 kts | 319° |
| 2026-04-28 13:33 | 27.90604 | 49.17299 | 25749 ft | 429 kts | 321° |
| 2026-04-28 13:33 | 27.93171 | 49.15567 | 25748 ft | 429 kts | 322° |
| 2026-04-28 13:33 | 27.95750 | 49.13870 | 25747 ft | 429 kts | 322° |
| 2026-04-28 13:34 | 27.98314 | 49.12200 | 25741 ft | 429 kts | 322° |
| 2026-04-28 13:34 | 28.00914 | 49.10510 | 25743 ft | 429 kts | 322° |
| 2026-04-28 13:34 | 28.03498 | 49.08828 | 25742 ft | 429 kts | 322° |
| 2026-04-28 13:34 | 28.06088 | 49.07136 | 25703 ft | 429 kts | 322° |
| 2026-04-28 13:35 | 28.08670 | 49.05444 | 25471 ft | 428 kts | 322° |
| 2026-04-28 13:35 | 28.11244 | 49.03753 | 25110 ft | 428 kts | 322° |
| 2026-04-28 13:35 | 28.13823 | 49.02054 | 24636 ft | 429 kts | 322° |
| 2026-04-28 13:35 | 28.16408 | 49.00349 | 24140 ft | 431 kts | 322° |
| 2026-04-28 13:36 | 28.19006 | 48.98636 | 23652 ft | 430 kts | 323° |
| 2026-04-28 13:36 | 28.21576 | 48.96944 | 23130 ft | 425 kts | 323° |
| 2026-04-28 13:36 | 28.24124 | 48.95268 | 22604 ft | 419 kts | 323° |
| 2026-04-28 13:36 | 28.26628 | 48.93621 | 22124 ft | 412 kts | 323° |
| 2026-04-28 13:37 | 28.29044 | 48.92032 | 21886 ft | 400 kts | 323° |
| 2026-04-28 13:37 | 28.31414 | 48.90473 | 21665 ft | 388 kts | 323° |
| 2026-04-28 13:37 | 28.33719 | 48.88953 | 21368 ft | 379 kts | 323° |
| 2026-04-28 13:37 | 28.35978 | 48.87457 | 20929 ft | 374 kts | 323° |
| 2026-04-28 13:38 | 28.38212 | 48.85972 | 20451 ft | 370 kts | 323° |
| 2026-04-28 13:38 | 28.40427 | 48.84498 | 19972 ft | 367 kts | 323° |
| 2026-04-28 13:38 | 28.42626 | 48.83034 | 19500 ft | 364 kts | 323° |
| 2026-04-28 13:38 | 28.44800 | 48.81589 | 19035 ft | 361 kts | 323° |
| 2026-04-28 13:39 | 28.46969 | 48.80147 | 18542 ft | 360 kts | 323° |
| 2026-04-28 13:39 | 28.49123 | 48.78715 | 18078 ft | 358 kts | 323° |
| 2026-04-28 13:39 | 28.51264 | 48.77293 | 17776 ft | 354 kts | 323° |
| 2026-04-28 13:39 | 28.53390 | 48.75879 | 17725 ft | 354 kts | 323° |
| 2026-04-28 13:40 | 28.55526 | 48.74450 | 17720 ft | 354 kts | 321° |
| 2026-04-28 13:40 | 28.57417 | 48.72790 | 17311 ft | 344 kts | 309° |
| 2026-04-28 13:40 | 28.59053 | 48.70824 | 16802 ft | 338 kts | 305° |
| 2026-04-28 13:40 | 28.60544 | 48.68778 | 16332 ft | 333 kts | 303° |
| 2026-04-28 13:41 | 28.61946 | 48.66698 | 15864 ft | 329 kts | 301° |
| 2026-04-28 13:41 | 28.63301 | 48.64615 | 15369 ft | 326 kts | 301° |
| 2026-04-28 13:41 | 28.64643 | 48.62532 | 14852 ft | 325 kts | 301° |
| 2026-04-28 13:41 | 28.65982 | 48.60460 | 14350 ft | 324 kts | 301° |
| 2026-04-28 13:42 | 28.67328 | 48.58398 | 13874 ft | 323 kts | 302° |
| 2026-04-28 13:42 | 28.68670 | 48.56356 | 13391 ft | 321 kts | 302° |
| 2026-04-28 13:42 | 28.70006 | 48.54338 | 13063 ft | 318 kts | 302° |
| 2026-04-28 13:42 | 28.71340 | 48.52327 | 13001 ft | 319 kts | 302° |
| 2026-04-28 13:43 | 28.72720 | 48.50333 | 12993 ft | 323 kts | 308° |
| 2026-04-28 13:43 | 28.74405 | 48.48675 | 12768 ft | 326 kts | 318° |
| 2026-04-28 13:43 | 28.76299 | 48.47230 | 12464 ft | 319 kts | 323° |
| 2026-04-28 13:43 | 28.78170 | 48.45993 | 12186 ft | 313 kts | 325° |
| 2026-04-28 13:44 | 28.80085 | 48.44815 | 11738 ft | 312 kts | 326° |
| 2026-04-28 13:44 | 28.82004 | 48.43667 | 11311 ft | 310 kts | 327° |
| 2026-04-28 13:44 | 28.83906 | 48.42529 | 10883 ft | 308 kts | 327° |
| 2026-04-28 13:44 | 28.85793 | 48.41390 | 10462 ft | 306 kts | 327° |
| 2026-04-28 13:45 | 28.87666 | 48.40247 | 10105 ft | 303 kts | 326° |
| 2026-04-28 13:45 | 28.89519 | 48.39106 | 9800 ft | 303 kts | 326° |
| 2026-04-28 13:45 | 28.91369 | 48.37958 | 9340 ft | 302 kts | 326° |
| 2026-04-28 13:45 | 28.93205 | 48.36816 | 8892 ft | 300 kts | 326° |
| 2026-04-28 13:46 | 28.95033 | 48.35676 | 8453 ft | 298 kts | 326° |
| 2026-04-28 13:46 | 28.96847 | 48.34546 | 8098 ft | 295 kts | 326° |
| 2026-04-28 13:46 | 28.98649 | 48.33422 | 8007 ft | 295 kts | 326° |
| 2026-04-28 13:46 | 29.00453 | 48.32296 | 7999 ft | 296 kts | 326° |
| 2026-04-28 13:47 | 29.02262 | 48.31165 | 7980 ft | 296 kts | 326° |
| 2026-04-28 13:47 | 29.04078 | 48.30032 | 7582 ft | 297 kts | 326° |
| 2026-04-28 13:47 | 29.05843 | 48.28932 | 7360 ft | 287 kts | 326° |
| 2026-04-28 13:47 | 29.07586 | 48.27852 | 7181 ft | 276 kts | 326° |
| 2026-04-28 13:48 | 29.09217 | 48.26840 | 6999 ft | 263 kts | 326° |
| 2026-04-28 13:48 | 29.10785 | 48.25868 | 6790 ft | 251 kts | 325° |
| 2026-04-28 13:48 | 29.12302 | 48.24922 | 6468 ft | 246 kts | 325° |
| 2026-04-28 13:48 | 29.13797 | 48.23982 | 6093 ft | 244 kts | 325° |
| 2026-04-28 13:49 | 29.15283 | 48.23047 | 5681 ft | 243 kts | 325° |
| 2026-04-28 13:49 | 29.16759 | 48.22118 | 5293 ft | 241 kts | 326° |
| 2026-04-28 13:49 | 29.18209 | 48.21210 | 5048 ft | 235 kts | 326° |
| 2026-04-28 13:49 | 29.19646 | 48.20309 | 5002 ft | 236 kts | 326° |
| 2026-04-28 13:50 | 29.21087 | 48.19404 | 4997 ft | 236 kts | 326° |
| 2026-04-28 13:50 | 29.22522 | 48.18504 | 4990 ft | 232 kts | 326° |
| 2026-04-28 13:50 | 29.23888 | 48.17656 | 4977 ft | 216 kts | 326° |
| 2026-04-28 13:50 | 29.25187 | 48.16849 | 4638 ft | 211 kts | 325° |
| 2026-04-28 13:51 | 29.26473 | 48.16043 | 4207 ft | 210 kts | 325° |
| 2026-04-28 13:51 | 29.27755 | 48.15234 | 3786 ft | 210 kts | 325° |
| 2026-04-28 13:51 | 29.29030 | 48.14431 | 3379 ft | 208 kts | 325° |
| 2026-04-28 13:51 | 29.30295 | 48.13635 | 3074 ft | 208 kts | 325° |
| 2026-04-28 13:52 | 29.31557 | 48.12841 | 3008 ft | 211 kts | 325° |
| 2026-04-28 13:52 | 29.32847 | 48.12030 | 2998 ft | 212 kts | 325° |
| 2026-04-28 13:52 | 29.34133 | 48.11224 | 2993 ft | 207 kts | 325° |
| 2026-04-28 13:52 | 29.35381 | 48.10447 | 2998 ft | 202 kts | 325° |
| 2026-04-28 13:53 | 29.36610 | 48.09679 | 2999 ft | 201 kts | 325° |
| 2026-04-28 13:53 | 29.37831 | 48.08913 | 2999 ft | 200 kts | 325° |
| 2026-04-28 13:53 | 29.39052 | 48.08145 | 2999 ft | 200 kts | 325° |
| 2026-04-28 13:53 | 29.40231 | 48.07320 | 2995 ft | 196 kts | 313° |
| 2026-04-28 13:54 | 29.41179 | 48.06227 | 3000 ft | 191 kts | 305° |
| 2026-04-28 13:54 | 29.42042 | 48.05069 | 3001 ft | 191 kts | 304° |
| 2026-04-28 13:54 | 29.42893 | 48.03903 | 3001 ft | 191 kts | 304° |
| 2026-04-28 13:54 | 29.43743 | 48.02725 | 3003 ft | 192 kts | 304° |
| 2026-04-28 13:55 | 29.44590 | 48.01538 | 3005 ft | 192 kts | 302° |
| 2026-04-28 13:55 | 29.45224 | 48.00232 | 2952 ft | 184 kts | 287° |
| 2026-04-28 13:55 | 29.45660 | 47.98859 | 2604 ft | 181 kts | 284° |
| 2026-04-28 13:55 | 29.45986 | 47.97477 | 2509 ft | 177 kts | 267° |
| 2026-04-28 13:56 | 29.45798 | 47.96112 | 2504 ft | 173 kts | 251° |
| 2026-04-28 13:56 | 29.45427 | 47.94791 | 2505 ft | 174 kts | 249° |
| 2026-04-28 13:56 | 29.45029 | 47.93483 | 2508 ft | 173 kts | 249° |
| 2026-04-28 13:56 | 29.44545 | 47.92228 | 2498 ft | 172 kts | 231° |
| 2026-04-28 13:57 | 29.43665 | 47.91325 | 2501 ft | 173 kts | 216° |
| 2026-04-28 13:57 | 29.42660 | 47.90558 | 2500 ft | 174 kts | 214° |
| 2026-04-28 13:57 | 29.41625 | 47.89816 | 2501 ft | 176 kts | 215° |
| 2026-04-28 13:57 | 29.40526 | 47.89175 | 2498 ft | 180 kts | 202° |
| 2026-04-28 13:58 | 29.39293 | 47.88857 | 2228 ft | 185 kts | 195° |
| 2026-04-28 13:58 | 29.38039 | 47.88640 | 2027 ft | 181 kts | 194° |
| 2026-04-28 13:58 | 29.36781 | 47.88443 | 2003 ft | 185 kts | 194° |
| 2026-04-28 13:58 | 29.35510 | 47.88251 | 1992 ft | 177 kts | 193° |
| 2026-04-28 13:59 | 29.34318 | 47.88218 | 1987 ft | 170 kts | 176° |
| 2026-04-28 13:59 | 29.33187 | 47.88643 | 1998 ft | 174 kts | 163° |
| 2026-04-28 13:59 | 29.32096 | 47.89222 | 2000 ft | 176 kts | 161° |
| 2026-04-28 13:59 | 29.30987 | 47.89820 | 1912 ft | 177 kts | 161° |
| 2026-04-28 14:00 | 29.29872 | 47.90413 | 1697 ft | 176 kts | 161° |
| 2026-04-28 14:00 | 29.28770 | 47.91001 | 1451 ft | 174 kts | 162° |
| 2026-04-28 14:00 | 29.27689 | 47.91580 | 1236 ft | 167 kts | 162° |
| 2026-04-28 14:00 | 29.26672 | 47.92124 | 1031 ft | 158 kts | 160° |
| 2026-04-28 14:01 | 29.25677 | 47.92653 | 829 ft | 158 kts | 156° |
| 2026-04-28 14:01 | 29.24677 | 47.93188 | 634 ft | 160 kts | 155° |
| 2026-04-28 14:01 | 29.23642 | 47.93736 | 424 ft | 163 kts | 155° |
| 2026-04-28 14:01 | 29.22652 | 47.94259 | 212 ft | 150 kts | 150° |
| 2026-04-28 14:02 | 29.21805 | 47.94744 | 161 ft | 115 kts | 154° |
| 2026-04-28 14:02 | 29.21326 | 47.95098 | 176 ft | 40 kts | 123° |
| 2026-04-28 14:02 | 29.21293 | 47.95269 | 179 ft | 6 kts | 39° |
| 2026-04-28 14:02 | 29.21307 | 47.95267 | 178 ft | 5 kts | 337° |
| 2026-04-28 14:03 | 29.21408 | 47.95210 | 177 ft | 30 kts | 333° |
| 2026-04-28 14:03 | 29.21625 | 47.95089 | 173 ft | 33 kts | 334° |
| 2026-04-28 14:03 | 29.21821 | 47.94985 | 168 ft | 30 kts | 336° |
| 2026-04-28 14:03 | 29.21983 | 47.94974 | 167 ft | 15 kts | 58° |
| 2026-04-28 14:04 | 29.22004 | 47.95077 | 169 ft | 14 kts | 75° |